<?xml version="1.0" encoding="UTF-8" standalone="no" ?>
<gpx xmlns="http://www.topografix.com/GPX/1/1" xmlns:xsi="http://www.w3.org/2001/XMLSchema-instance" xsi:schemaLocation="http://www.topografix.com/GPX/1/1 http://www.topografix.com/GPX/1/1/gpx.xsd" version="1.1" creator="VisuGPX - https://www.visugpx.com">
  <metadata>
    <name>GR7 Verdun en Lauragais Fanjeaux</name>
    <desc><![CDATA[Randonnée pédestre sur le GR7 Verdun en Lauragais Fanjeaux

Randonnée pédestre sur le GR7 en suivant la ligne du partage des eaux depuis les Vosges jusqu'aux Pyrénées. Gîtes d'étapes, Chambres d'hôtes, Maison d'hôtes, Hôtels, Camping, Refuges, Auberges.]]></desc>
  </metadata>
  <trk>
    <name><![CDATA[GR7 Des Vosges aux Pyrénées (2020)]]></name>
    <cmt><![CDATA[Randonnée pédestre sur le GR7 en suivant la ligne du partage des eaux depuis les Vosges jusqu'aux Pyrénées. Gîtes d'étapes, Chambres d'hôtes, Maison d'hôtes, Hôtels, Camping, Refuges, Auberges.]]></cmt>
    <desc><![CDATA[Randonnée pédestre sur le GR7 en suivant la ligne du partage des eaux depuis les Vosges jusqu'aux Pyrénées. Gîtes d'étapes, Chambres d'hôtes, Maison d'hôtes, Hôtels, Camping, Refuges, Auberges.]]></desc>
    <trkseg>
      <trkpt lat="43.37085" lon="2.05784">
        <ele>385.28</ele>
        <time>2015-08-26T11:29:40Z</time>
      </trkpt>
      <trkpt lat="43.36982" lon="2.05723">
        <ele>379.851</ele>
        <time>2015-08-26T11:30:00Z</time>
      </trkpt>
      <trkpt lat="43.36954" lon="2.05721">
        <ele>376.356</ele>
        <time>2015-08-26T11:30:20Z</time>
      </trkpt>
      <trkpt lat="43.36899" lon="2.05778">
        <ele>369.965</ele>
        <time>2015-08-26T11:30:40Z</time>
      </trkpt>
      <trkpt lat="43.36801" lon="2.05818">
        <ele>359.228</ele>
        <time>2015-08-26T11:31:00Z</time>
      </trkpt>
      <trkpt lat="43.36671" lon="2.05842">
        <ele>343.345</ele>
        <time>2015-08-26T11:31:20Z</time>
      </trkpt>
      <trkpt lat="43.36655" lon="2.05876">
        <ele>339.789</ele>
        <time>2015-08-26T11:31:40Z</time>
      </trkpt>
      <trkpt lat="43.36582" lon="2.05877">
        <ele>327.739</ele>
        <time>2015-08-26T11:32:00Z</time>
      </trkpt>
      <trkpt lat="43.36513" lon="2.05921">
        <ele>315.001</ele>
        <time>2015-08-26T11:32:20Z</time>
      </trkpt>
      <trkpt lat="43.36517" lon="2.05967">
        <ele>313.121</ele>
        <time>2020-12-01T19:57:48Z</time>
      </trkpt>
      <trkpt lat="43.36505" lon="2.0602">
        <ele>308.208</ele>
        <time>2020-12-01T19:58:08Z</time>
      </trkpt>
      <trkpt lat="43.36483" lon="2.06067">
        <ele>305.769</ele>
        <time>2015-08-26T11:33:20Z</time>
      </trkpt>
      <trkpt lat="43.36447" lon="2.06103">
        <ele>305.874</ele>
        <time>2015-08-26T11:33:40Z</time>
      </trkpt>
      <trkpt lat="43.3639" lon="2.06136">
        <ele>301.025</ele>
        <time>2015-08-26T11:34:00Z</time>
      </trkpt>
      <trkpt lat="43.36347" lon="2.06121">
        <ele>301.64</ele>
        <time>2015-08-26T11:34:20Z</time>
      </trkpt>
      <trkpt lat="43.36311" lon="2.061">
        <ele>297.459</ele>
        <time>2015-08-26T11:34:40Z</time>
      </trkpt>
      <trkpt lat="43.36264" lon="2.06084">
        <ele>283.692</ele>
        <time>2015-08-26T11:35:00Z</time>
      </trkpt>
      <trkpt lat="43.36255" lon="2.06053">
        <ele>283.829</ele>
        <time>2015-08-26T11:35:20Z</time>
      </trkpt>
      <trkpt lat="43.36243" lon="2.06045">
        <ele>284.883</ele>
        <time>2015-08-26T11:35:40Z</time>
      </trkpt>
      <trkpt lat="43.36222" lon="2.06053">
        <ele>283.071</ele>
        <time>2015-08-26T11:36:00Z</time>
      </trkpt>
      <trkpt lat="43.36187" lon="2.06048">
        <ele>287.041</ele>
        <time>2015-08-26T11:36:20Z</time>
      </trkpt>
      <trkpt lat="43.3612" lon="2.06015">
        <ele>287.215</ele>
        <time>2015-08-26T11:36:40Z</time>
      </trkpt>
      <trkpt lat="43.36116" lon="2.05995">
        <ele>287.708</ele>
        <time>2015-08-26T11:37:00Z</time>
      </trkpt>
      <trkpt lat="43.36131" lon="2.05953">
        <ele>296.663</ele>
        <time>2015-08-26T11:37:20Z</time>
      </trkpt>
      <trkpt lat="43.36124" lon="2.05908">
        <ele>293.668</ele>
        <time>2015-08-26T11:37:40Z</time>
      </trkpt>
      <trkpt lat="43.36112" lon="2.05896">
        <ele>291.289</ele>
        <time>2015-08-26T11:38:00Z</time>
      </trkpt>
      <trkpt lat="43.36078" lon="2.05937">
        <ele>293.614</ele>
        <time>2015-08-26T11:38:20Z</time>
      </trkpt>
      <trkpt lat="43.36051" lon="2.05949">
        <ele>299.173</ele>
        <time>2015-08-26T11:38:40Z</time>
      </trkpt>
      <trkpt lat="43.35968" lon="2.05924">
        <ele>305.386</ele>
        <time>2015-08-26T11:39:00Z</time>
      </trkpt>
      <trkpt lat="43.35943" lon="2.05912">
        <ele>305.333</ele>
        <time>2015-08-26T11:39:20Z</time>
      </trkpt>
      <trkpt lat="43.3584" lon="2.05966">
        <ele>297.457</ele>
        <time>2015-08-26T11:39:40Z</time>
      </trkpt>
      <trkpt lat="43.35781" lon="2.06022">
        <ele>293.758</ele>
        <time>2015-08-26T11:40:00Z</time>
      </trkpt>
      <trkpt lat="43.35765" lon="2.0602">
        <ele>293.252</ele>
        <time>2015-08-26T11:40:20Z</time>
      </trkpt>
      <trkpt lat="43.35708" lon="2.05956">
        <ele>286.117</ele>
        <time>2015-08-26T11:40:40Z</time>
      </trkpt>
      <trkpt lat="43.35651" lon="2.05914">
        <ele>290.408</ele>
        <time>2015-08-26T11:41:00Z</time>
      </trkpt>
      <trkpt lat="43.35578" lon="2.05828">
        <ele>287.231</ele>
        <time>2015-08-26T11:41:20Z</time>
      </trkpt>
      <trkpt lat="43.35494" lon="2.05741">
        <ele>278.846</ele>
        <time>2015-08-26T11:41:40Z</time>
      </trkpt>
      <trkpt lat="43.35471" lon="2.05705">
        <ele>278.627</ele>
        <time>2015-08-26T11:42:00Z</time>
      </trkpt>
      <trkpt lat="43.35432" lon="2.05677">
        <ele>278.212</ele>
        <time>2015-08-26T11:42:20Z</time>
      </trkpt>
      <trkpt lat="43.3542" lon="2.05645">
        <ele>278.971</ele>
        <time>2015-08-26T11:42:40Z</time>
      </trkpt>
      <trkpt lat="43.35465" lon="2.05611">
        <ele>279.754</ele>
        <time>2015-08-26T11:43:00Z</time>
      </trkpt>
      <trkpt lat="43.35447" lon="2.05537">
        <ele>275.591</ele>
        <time>2015-08-26T11:43:20Z</time>
      </trkpt>
      <trkpt lat="43.35435" lon="2.0541">
        <ele>270.185</ele>
        <time>2015-08-26T11:43:40Z</time>
      </trkpt>
      <trkpt lat="43.35457" lon="2.05354">
        <ele>266.941</ele>
        <time>2015-08-26T11:44:00Z</time>
      </trkpt>
      <trkpt lat="43.3549" lon="2.05161">
        <ele>256.081</ele>
        <time>2015-08-26T11:44:20Z</time>
      </trkpt>
      <trkpt lat="43.35494" lon="2.05146">
        <ele>254.309</ele>
        <time>2015-08-26T11:44:40Z</time>
      </trkpt>
      <trkpt lat="43.35495" lon="2.05096">
        <ele>251.908</ele>
        <time>2015-08-26T11:45:00Z</time>
      </trkpt>
      <trkpt lat="43.3551" lon="2.04974">
        <ele>241.79</ele>
        <time>2015-08-26T11:45:20Z</time>
      </trkpt>
      <trkpt lat="43.35506" lon="2.04929">
        <ele>239.365</ele>
        <time>2015-08-26T11:45:40Z</time>
      </trkpt>
      <trkpt lat="43.35494" lon="2.04893">
        <ele>236.776</ele>
        <time>2015-08-26T11:46:00Z</time>
      </trkpt>
      <trkpt lat="43.35453" lon="2.04861">
        <ele>233.071</ele>
        <time>2015-08-26T11:46:20Z</time>
      </trkpt>
      <trkpt lat="43.35383" lon="2.04816">
        <ele>230.26</ele>
        <time>2015-08-26T11:46:40Z</time>
      </trkpt>
      <trkpt lat="43.35383" lon="2.04799">
        <ele>231.253</ele>
        <time>2015-08-26T11:47:00Z</time>
      </trkpt>
      <trkpt lat="43.35434" lon="2.04727">
        <ele>227.93</ele>
        <time>2015-08-26T11:47:20Z</time>
      </trkpt>
      <trkpt lat="43.3547" lon="2.0465">
        <ele>225.054</ele>
        <time>2015-08-26T11:47:40Z</time>
      </trkpt>
      <trkpt lat="43.35467" lon="2.04637">
        <ele>224.994</ele>
        <time>2015-08-26T11:48:00Z</time>
      </trkpt>
      <trkpt lat="43.3546" lon="2.04629">
        <ele>224.157</ele>
        <time>2015-08-26T11:48:20Z</time>
      </trkpt>
      <trkpt lat="43.35408" lon="2.04631">
        <ele>224.522</ele>
        <time>2015-08-26T11:48:40Z</time>
      </trkpt>
      <trkpt lat="43.35402" lon="2.04604">
        <ele>225.608</ele>
        <time>2015-08-26T11:49:00Z</time>
      </trkpt>
      <trkpt lat="43.35416" lon="2.04553">
        <ele>222.495</ele>
        <time>2015-08-26T11:49:20Z</time>
      </trkpt>
      <trkpt lat="43.35429" lon="2.0452">
        <ele>221.73</ele>
        <time>2015-08-26T11:49:40Z</time>
      </trkpt>
      <trkpt lat="43.35438" lon="2.04481">
        <ele>220.011</ele>
        <time>2015-08-26T11:50:00Z</time>
      </trkpt>
      <trkpt lat="43.35439" lon="2.04425">
        <ele>216.246</ele>
        <time>2015-08-26T11:50:20Z</time>
      </trkpt>
      <trkpt lat="43.35413" lon="2.0434">
        <ele>211.665</ele>
        <time>2020-03-08T20:56:37Z</time>
      </trkpt>
      <trkpt lat="43.35399" lon="2.04254">
        <ele>203.848</ele>
        <time>2020-03-08T20:56:57Z</time>
      </trkpt>
      <trkpt lat="43.35364" lon="2.04232">
        <ele>203.625</ele>
        <time>2020-03-08T20:57:17Z</time>
      </trkpt>
      <trkpt lat="43.35351" lon="2.0421">
        <ele>201.749</ele>
        <time>2015-08-26T11:51:00Z</time>
      </trkpt>
      <trkpt lat="43.35433" lon="2.04201">
        <ele>198.328</ele>
        <time>2020-03-08T20:57:57Z</time>
      </trkpt>
      <trkpt lat="43.35435" lon="2.04158">
        <ele>197.989</ele>
        <time>2015-08-26T11:51:40Z</time>
      </trkpt>
      <trkpt lat="43.35464" lon="2.04122">
        <ele>201.817</ele>
        <time>2020-03-08T20:58:37Z</time>
      </trkpt>
      <trkpt lat="43.35471" lon="2.04022">
        <ele>214.808</ele>
        <time>2015-08-26T11:52:20Z</time>
      </trkpt>
      <trkpt lat="43.35423" lon="2.03934">
        <ele>221.758</ele>
        <time>2015-08-26T11:52:40Z</time>
      </trkpt>
      <trkpt lat="43.35402" lon="2.03862">
        <ele>227.093</ele>
        <time>2015-08-26T11:53:00Z</time>
      </trkpt>
      <trkpt lat="43.35407" lon="2.03793">
        <ele>225.024</ele>
        <time>2015-08-26T11:53:20Z</time>
      </trkpt>
      <trkpt lat="43.35423" lon="2.03699">
        <ele>223.699</ele>
        <time>2015-08-26T11:53:40Z</time>
      </trkpt>
      <trkpt lat="43.3543" lon="2.0356">
        <ele>222.968</ele>
        <time>2015-08-26T11:54:00Z</time>
      </trkpt>
      <trkpt lat="43.35429" lon="2.03523">
        <ele>223.361</ele>
        <time>2015-08-26T11:54:20Z</time>
      </trkpt>
      <trkpt lat="43.35435" lon="2.03493">
        <ele>223.548</ele>
        <time>2015-08-26T11:54:40Z</time>
      </trkpt>
      <trkpt lat="43.35444" lon="2.03328">
        <ele>224.032</ele>
        <time>2015-08-26T11:55:00Z</time>
      </trkpt>
      <trkpt lat="43.35073" lon="2.03238">
        <ele>234.082</ele>
        <time>2015-08-26T11:55:20Z</time>
      </trkpt>
      <trkpt lat="43.34911" lon="2.03312">
        <ele>234.143</ele>
        <time>2015-08-26T11:55:40Z</time>
      </trkpt>
      <trkpt lat="43.34851" lon="2.03309">
        <ele>230.217</ele>
        <time>2015-08-26T11:56:00Z</time>
      </trkpt>
      <trkpt lat="43.34804" lon="2.03284">
        <ele>225.908</ele>
        <time>2015-08-26T11:56:20Z</time>
      </trkpt>
      <trkpt lat="43.34623" lon="2.03155">
        <ele>224.614</ele>
        <time>2015-08-26T11:56:40Z</time>
      </trkpt>
      <trkpt lat="43.34593" lon="2.03168">
        <ele>225.069</ele>
        <time>2015-08-26T11:57:00Z</time>
      </trkpt>
      <trkpt lat="43.34567" lon="2.03107">
        <ele>221.57</ele>
        <time>2015-08-26T11:57:20Z</time>
      </trkpt>
      <trkpt lat="43.34497" lon="2.03015">
        <ele>211.675</ele>
        <time>2015-08-26T11:57:40Z</time>
      </trkpt>
      <trkpt lat="43.3435" lon="2.02872">
        <ele>195.234</ele>
        <time>2015-08-26T11:58:00Z</time>
      </trkpt>
      <trkpt lat="43.34224" lon="2.02734">
        <ele>180.997</ele>
        <time>2015-08-26T11:58:20Z</time>
      </trkpt>
      <trkpt lat="43.34098" lon="2.02838">
        <ele>180.154</ele>
        <time>2015-08-26T11:58:40Z</time>
      </trkpt>
      <trkpt lat="43.3403" lon="2.02964">
        <ele>178.628</ele>
        <time>2015-08-26T11:59:00Z</time>
      </trkpt>
      <trkpt lat="43.33983" lon="2.03026">
        <ele>177.778</ele>
        <time>2015-08-26T11:59:20Z</time>
      </trkpt>
      <trkpt lat="43.33936" lon="2.03055">
        <ele>177.633</ele>
        <time>2015-08-26T11:59:40Z</time>
      </trkpt>
      <trkpt lat="43.33836" lon="2.03084">
        <ele>178.126</ele>
        <time>2015-08-26T12:00:00Z</time>
      </trkpt>
      <trkpt lat="43.33785" lon="2.03134">
        <ele>180.208</ele>
        <time>2015-08-26T12:00:20Z</time>
      </trkpt>
      <trkpt lat="43.33774" lon="2.03217">
        <ele>186.913</ele>
        <time>2015-08-26T12:00:40Z</time>
      </trkpt>
      <trkpt lat="43.33673" lon="2.03415">
        <ele>191.158</ele>
        <time>2015-08-26T12:01:00Z</time>
      </trkpt>
      <trkpt lat="43.3361" lon="2.03438">
        <ele>186.769</ele>
        <time>2015-08-26T12:01:20Z</time>
      </trkpt>
      <trkpt lat="43.33544" lon="2.03443">
        <ele>184.184</ele>
        <time>2015-08-26T12:01:40Z</time>
      </trkpt>
      <trkpt lat="43.33425" lon="2.03401">
        <ele>184.983</ele>
        <time>2015-08-26T12:02:00Z</time>
      </trkpt>
      <trkpt lat="43.33145" lon="2.03612">
        <ele>172.016</ele>
        <time>2015-08-26T12:02:20Z</time>
      </trkpt>
      <trkpt lat="43.33137" lon="2.03586">
        <ele>172.033</ele>
        <time>2015-08-26T12:02:40Z</time>
      </trkpt>
      <trkpt lat="43.33127" lon="2.03581">
        <ele>171.957</ele>
        <time>2015-08-26T12:03:00Z</time>
      </trkpt>
      <trkpt lat="43.33115" lon="2.03529">
        <ele>170.923</ele>
        <time>2015-08-26T12:03:20Z</time>
      </trkpt>
      <trkpt lat="43.33085" lon="2.03492">
        <ele>170.783</ele>
        <time>2015-08-26T12:03:40Z</time>
      </trkpt>
      <trkpt lat="43.3306" lon="2.03489">
        <ele>170.911</ele>
        <time>2015-08-26T12:04:00Z</time>
      </trkpt>
      <trkpt lat="43.32907" lon="2.03427">
        <ele>170.008</ele>
        <time>2015-08-26T12:04:20Z</time>
      </trkpt>
      <trkpt lat="43.32892" lon="2.03361">
        <ele>170.098</ele>
        <time>2015-08-26T12:04:40Z</time>
      </trkpt>
      <trkpt lat="43.32871" lon="2.03039">
        <ele>177.523</ele>
        <time>2015-08-26T12:05:00Z</time>
      </trkpt>
      <trkpt lat="43.32783" lon="2.03049">
        <ele>174.834</ele>
        <time>2015-08-26T12:05:20Z</time>
      </trkpt>
      <trkpt lat="43.32694" lon="2.03068">
        <ele>175.069</ele>
        <time>2015-08-26T12:05:40Z</time>
      </trkpt>
      <trkpt lat="43.32593" lon="2.03068">
        <ele>170.388</ele>
        <time>2015-08-26T12:06:00Z</time>
      </trkpt>
      <trkpt lat="43.32535" lon="2.03038">
        <ele>170.361</ele>
        <time>2015-08-26T12:06:20Z</time>
      </trkpt>
      <trkpt lat="43.3244" lon="2.03015">
        <ele>175.228</ele>
        <time>2015-08-26T12:06:40Z</time>
      </trkpt>
      <trkpt lat="43.32369" lon="2.02985">
        <ele>178.162</ele>
        <time>2015-08-26T12:07:00Z</time>
      </trkpt>
      <trkpt lat="43.3232" lon="2.03014">
        <ele>178.746</ele>
        <time>2015-08-26T12:07:20Z</time>
      </trkpt>
      <trkpt lat="43.32287" lon="2.0302">
        <ele>181.188</ele>
        <time>2015-08-26T12:07:40Z</time>
      </trkpt>
      <trkpt lat="43.32258" lon="2.02952">
        <ele>190.216</ele>
        <time>2015-08-26T12:08:00Z</time>
      </trkpt>
      <trkpt lat="43.32217" lon="2.02893">
        <ele>188.808</ele>
        <time>2015-08-26T12:08:20Z</time>
      </trkpt>
      <trkpt lat="43.32117" lon="2.02824">
        <ele>180.16</ele>
        <time>2015-08-26T12:08:40Z</time>
      </trkpt>
      <trkpt lat="43.32084" lon="2.0278">
        <ele>177.175</ele>
        <time>2015-08-26T12:09:00Z</time>
      </trkpt>
      <trkpt lat="43.3199" lon="2.02697">
        <ele>172.136</ele>
        <time>2015-08-26T12:09:20Z</time>
      </trkpt>
      <trkpt lat="43.31895" lon="2.02667">
        <ele>170.211</ele>
        <time>2015-08-26T12:09:40Z</time>
      </trkpt>
      <trkpt lat="43.31859" lon="2.02645">
        <ele>169.14</ele>
        <time>2015-08-26T12:10:00Z</time>
      </trkpt>
      <trkpt lat="43.31836" lon="2.02647">
        <ele>168.643</ele>
        <time>2015-08-26T12:10:20Z</time>
      </trkpt>
      <trkpt lat="43.31815" lon="2.02645">
        <ele>167.91</ele>
        <time>2015-08-26T12:10:40Z</time>
      </trkpt>
      <trkpt lat="43.3177" lon="2.02658">
        <ele>169.164</ele>
        <time>2015-08-26T12:11:00Z</time>
      </trkpt>
      <trkpt lat="43.31694" lon="2.027">
        <ele>170.031</ele>
        <time>2015-08-26T12:11:20Z</time>
      </trkpt>
      <trkpt lat="43.31643" lon="2.02716">
        <ele>170.061</ele>
        <time>2015-08-26T12:11:40Z</time>
      </trkpt>
      <trkpt lat="43.31598" lon="2.02771">
        <ele>170.007</ele>
        <time>2015-08-26T12:12:00Z</time>
      </trkpt>
      <trkpt lat="43.31582" lon="2.02776">
        <ele>169.908</ele>
        <time>2015-08-26T12:12:20Z</time>
      </trkpt>
      <trkpt lat="43.31559" lon="2.02807">
        <ele>170.069</ele>
        <time>2015-08-26T12:12:40Z</time>
      </trkpt>
      <trkpt lat="43.3155" lon="2.02781">
        <ele>168.374</ele>
        <time>2015-08-26T12:13:00Z</time>
      </trkpt>
      <trkpt lat="43.31551" lon="2.02617">
        <ele>154.655</ele>
        <time>2015-08-26T12:13:20Z</time>
      </trkpt>
      <trkpt lat="43.31491" lon="2.02617">
        <ele>151.62</ele>
        <time>2015-08-26T12:13:40Z</time>
      </trkpt>
      <trkpt lat="43.31339" lon="2.02474">
        <ele>165.989</ele>
        <time>2019-03-29T01:37:31Z</time>
      </trkpt>
      <trkpt lat="43.31301" lon="2.02616">
        <ele>153.732</ele>
        <time>2019-03-29T01:37:51Z</time>
      </trkpt>
      <trkpt lat="43.31154" lon="2.02764">
        <ele>150.099</ele>
        <time>2015-08-26T12:14:40Z</time>
      </trkpt>
      <trkpt lat="43.30996" lon="2.02841">
        <ele>150.053</ele>
        <time>2015-08-26T12:15:00Z</time>
      </trkpt>
      <trkpt lat="43.30649" lon="2.02786">
        <ele>150.012</ele>
        <time>2015-08-26T12:15:20Z</time>
      </trkpt>
      <trkpt lat="43.30578" lon="2.02748">
        <ele>152.532</ele>
        <time>2015-08-26T12:15:40Z</time>
      </trkpt>
      <trkpt lat="43.30537" lon="2.02792">
        <ele>150.105</ele>
        <time>2015-08-26T12:16:00Z</time>
      </trkpt>
      <trkpt lat="43.30328" lon="2.02704">
        <ele>143.308</ele>
        <time>2015-08-26T12:16:20Z</time>
      </trkpt>
      <trkpt lat="43.30185" lon="2.02533">
        <ele>140.027</ele>
        <time>2015-08-26T12:16:40Z</time>
      </trkpt>
      <trkpt lat="43.3015" lon="2.02499">
        <ele>140.022</ele>
        <time>2015-08-26T12:17:00Z</time>
      </trkpt>
      <trkpt lat="43.30107" lon="2.025">
        <ele>141.043</ele>
        <time>2015-08-26T12:17:20Z</time>
      </trkpt>
      <trkpt lat="43.29922" lon="2.02347">
        <ele>151.998</ele>
        <time>2015-08-26T12:17:40Z</time>
      </trkpt>
      <trkpt lat="43.29889" lon="2.02342">
        <ele>157.717</ele>
        <time>2015-08-26T12:18:00Z</time>
      </trkpt>
      <trkpt lat="43.299" lon="2.02292">
        <ele>161.01</ele>
        <time>2015-08-26T12:18:20Z</time>
      </trkpt>
      <trkpt lat="43.29878" lon="2.02228">
        <ele>166.997</ele>
        <time>2015-08-26T12:18:40Z</time>
      </trkpt>
      <trkpt lat="43.29811" lon="2.02181">
        <ele>165.251</ele>
        <time>2015-08-26T12:19:00Z</time>
      </trkpt>
      <trkpt lat="43.29845" lon="2.02066">
        <ele>165.668</ele>
        <time>2015-08-26T12:19:20Z</time>
      </trkpt>
      <trkpt lat="43.29633" lon="2.01908">
        <ele>154.742</ele>
        <time>2015-08-26T12:19:40Z</time>
      </trkpt>
      <trkpt lat="43.2955" lon="2.0207">
        <ele>154.826</ele>
        <time>2015-08-26T12:20:00Z</time>
      </trkpt>
      <trkpt lat="43.29548" lon="2.02111">
        <ele>155.008</ele>
        <time>2015-08-26T12:20:20Z</time>
      </trkpt>
      <trkpt lat="43.29529" lon="2.02133">
        <ele>154.242</ele>
        <time>2015-08-26T12:20:40Z</time>
      </trkpt>
      <trkpt lat="43.29492" lon="2.02141">
        <ele>153.077</ele>
        <time>2015-08-26T12:21:00Z</time>
      </trkpt>
      <trkpt lat="43.29407" lon="2.02254">
        <ele>150.618</ele>
        <time>2015-08-26T12:21:20Z</time>
      </trkpt>
      <trkpt lat="43.29284" lon="2.02347">
        <ele>150.013</ele>
        <time>2015-08-26T12:21:40Z</time>
      </trkpt>
      <trkpt lat="43.29179" lon="2.02514">
        <ele>148.232</ele>
        <time>2015-08-26T12:22:00Z</time>
      </trkpt>
      <trkpt lat="43.29037" lon="2.02694">
        <ele>145.725</ele>
        <time>2015-08-26T12:22:20Z</time>
      </trkpt>
      <trkpt lat="43.28961" lon="2.02627">
        <ele>149.752</ele>
        <time>2015-08-26T12:22:40Z</time>
      </trkpt>
      <trkpt lat="43.28932" lon="2.02632">
        <ele>150.056</ele>
        <time>2015-08-26T12:23:00Z</time>
      </trkpt>
      <trkpt lat="43.2891" lon="2.02692">
        <ele>150.085</ele>
        <time>2015-08-26T12:23:20Z</time>
      </trkpt>
      <trkpt lat="43.28876" lon="2.02754">
        <ele>150.089</ele>
        <time>2015-08-26T12:23:40Z</time>
      </trkpt>
      <trkpt lat="43.28809" lon="2.02906">
        <ele>146.117</ele>
        <time>2015-08-26T12:24:00Z</time>
      </trkpt>
      <trkpt lat="43.2874" lon="2.0303">
        <ele>141.308</ele>
        <time>2015-08-26T12:24:20Z</time>
      </trkpt>
      <trkpt lat="43.28655" lon="2.02984">
        <ele>139.014</ele>
        <time>2015-08-26T12:24:40Z</time>
      </trkpt>
      <trkpt lat="43.28591" lon="2.03275">
        <ele>139.019</ele>
        <time>2015-08-26T12:25:00Z</time>
      </trkpt>
      <trkpt lat="43.28566" lon="2.03364">
        <ele>139.01</ele>
        <time>2015-08-26T12:25:20Z</time>
      </trkpt>
      <trkpt lat="43.28547" lon="2.03409">
        <ele>139.065</ele>
        <time>2015-08-26T12:25:40Z</time>
      </trkpt>
      <trkpt lat="43.28524" lon="2.03496">
        <ele>138.864</ele>
        <time>2015-08-26T12:26:00Z</time>
      </trkpt>
      <trkpt lat="43.28422" lon="2.03834">
        <ele>135.267</ele>
        <time>2015-08-26T12:26:20Z</time>
      </trkpt>
      <trkpt lat="43.28279" lon="2.0426">
        <ele>134.084</ele>
        <time>2015-08-26T12:26:40Z</time>
      </trkpt>
      <trkpt lat="43.28271" lon="2.04302">
        <ele>134.078</ele>
        <time>2015-08-26T12:27:00Z</time>
      </trkpt>
      <trkpt lat="43.28053" lon="2.04934">
        <ele>133.078</ele>
        <time>2015-08-26T12:27:20Z</time>
      </trkpt>
      <trkpt lat="43.28051" lon="2.05012">
        <ele>133.033</ele>
        <time>2015-08-26T12:27:40Z</time>
      </trkpt>
      <trkpt lat="43.28025" lon="2.05016">
        <ele>133.026</ele>
        <time>2015-08-26T12:28:00Z</time>
      </trkpt>
      <trkpt lat="43.27934" lon="2.05275">
        <ele>132.008</ele>
        <time>2015-08-26T12:28:20Z</time>
      </trkpt>
      <trkpt lat="43.27835" lon="2.05589">
        <ele>132.053</ele>
        <time>2015-08-26T12:28:40Z</time>
      </trkpt>
      <trkpt lat="43.2781" lon="2.05676">
        <ele>132.028</ele>
        <time>2015-08-26T12:29:00Z</time>
      </trkpt>
      <trkpt lat="43.27775" lon="2.05845">
        <ele>132.079</ele>
        <time>2015-08-26T12:29:20Z</time>
      </trkpt>
      <trkpt lat="43.2764" lon="2.06858">
        <ele>131.114</ele>
        <time>2015-08-26T12:29:40Z</time>
      </trkpt>
      <trkpt lat="43.27613" lon="2.06963">
        <ele>131.043</ele>
        <time>2015-08-26T12:30:00Z</time>
      </trkpt>
      <trkpt lat="43.2751" lon="2.07223">
        <ele>131.016</ele>
        <time>2015-08-26T12:30:20Z</time>
      </trkpt>
      <trkpt lat="43.27522" lon="2.07309">
        <ele>131.083</ele>
        <time>2015-08-26T12:30:40Z</time>
      </trkpt>
      <trkpt lat="43.27554" lon="2.07397">
        <ele>130.367</ele>
        <time>2015-08-26T12:31:00Z</time>
      </trkpt>
      <trkpt lat="43.2761" lon="2.07511">
        <ele>130.077</ele>
        <time>2015-08-26T12:31:20Z</time>
      </trkpt>
      <trkpt lat="43.2762" lon="2.07568">
        <ele>130.061</ele>
        <time>2015-08-26T12:31:40Z</time>
      </trkpt>
      <trkpt lat="43.27598" lon="2.07824">
        <ele>130.227</ele>
        <time>2015-08-26T12:32:00Z</time>
      </trkpt>
      <trkpt lat="43.27602" lon="2.07891">
        <ele>130.008</ele>
        <time>2015-08-26T12:32:20Z</time>
      </trkpt>
      <trkpt lat="43.27536" lon="2.0788">
        <ele>131.053</ele>
        <time>2015-08-26T12:32:40Z</time>
      </trkpt>
      <trkpt lat="43.27454" lon="2.07779">
        <ele>132.728</ele>
        <time>2015-08-26T12:33:00Z</time>
      </trkpt>
      <trkpt lat="43.27297" lon="2.0765">
        <ele>140.019</ele>
        <time>2015-08-26T12:33:20Z</time>
      </trkpt>
      <trkpt lat="43.27194" lon="2.07468">
        <ele>142.074</ele>
        <time>2015-08-26T12:33:40Z</time>
      </trkpt>
      <trkpt lat="43.27064" lon="2.07303">
        <ele>156.853</ele>
        <time>2015-08-26T12:34:00Z</time>
      </trkpt>
      <trkpt lat="43.26857" lon="2.07123">
        <ele>160.026</ele>
        <time>2015-08-26T12:34:20Z</time>
      </trkpt>
      <trkpt lat="43.26733" lon="2.07136">
        <ele>156.383</ele>
        <time>2015-08-26T12:34:40Z</time>
      </trkpt>
      <trkpt lat="43.26537" lon="2.07087">
        <ele>147.767</ele>
        <time>2015-08-26T12:35:00Z</time>
      </trkpt>
      <trkpt lat="43.26463" lon="2.0708">
        <ele>147.045</ele>
        <time>2015-08-26T12:35:20Z</time>
      </trkpt>
      <trkpt lat="43.26257" lon="2.07106">
        <ele>149.847</ele>
        <time>2015-08-26T12:35:40Z</time>
      </trkpt>
      <trkpt lat="43.26201" lon="2.07104">
        <ele>150.011</ele>
        <time>2015-08-26T12:36:00Z</time>
      </trkpt>
      <trkpt lat="43.26057" lon="2.07004">
        <ele>150.008</ele>
        <time>2015-08-26T12:36:20Z</time>
      </trkpt>
      <trkpt lat="43.25965" lon="2.06971">
        <ele>147.58</ele>
        <time>2015-08-26T12:36:40Z</time>
      </trkpt>
      <trkpt lat="43.25867" lon="2.06905">
        <ele>145.045</ele>
        <time>2015-08-26T12:37:00Z</time>
      </trkpt>
      <trkpt lat="43.25643" lon="2.06821">
        <ele>143.066</ele>
        <time>2015-08-26T12:37:20Z</time>
      </trkpt>
      <trkpt lat="43.25555" lon="2.06796">
        <ele>142.721</ele>
        <time>2015-08-26T12:37:40Z</time>
      </trkpt>
      <trkpt lat="43.25472" lon="2.06761">
        <ele>142.03</ele>
        <time>2015-08-26T12:38:00Z</time>
      </trkpt>
      <trkpt lat="43.25332" lon="2.06715">
        <ele>142.053</ele>
        <time>2015-08-26T12:38:20Z</time>
      </trkpt>
      <trkpt lat="43.252" lon="2.06689">
        <ele>143.09</ele>
        <time>2015-08-26T12:38:40Z</time>
      </trkpt>
      <trkpt lat="43.25115" lon="2.0665">
        <ele>144.064</ele>
        <time>2015-08-26T12:39:00Z</time>
      </trkpt>
      <trkpt lat="43.24916" lon="2.06627">
        <ele>145.063</ele>
        <time>2015-08-26T12:39:20Z</time>
      </trkpt>
      <trkpt lat="43.24873" lon="2.06611">
        <ele>145.044</ele>
        <time>2015-08-26T12:39:40Z</time>
      </trkpt>
      <trkpt lat="43.24702" lon="2.06516">
        <ele>145.418</ele>
        <time>2015-08-26T12:40:00Z</time>
      </trkpt>
      <trkpt lat="43.24653" lon="2.06511">
        <ele>146.008</ele>
        <time>2015-08-26T12:40:20Z</time>
      </trkpt>
      <trkpt lat="43.24659" lon="2.06475">
        <ele>145.452</ele>
        <time>2015-08-26T12:40:40Z</time>
      </trkpt>
      <trkpt lat="43.24761" lon="2.06523">
        <ele>145.017</ele>
        <time>2015-08-26T12:41:00Z</time>
      </trkpt>
      <trkpt lat="43.24783" lon="2.06525">
        <ele>145.028</ele>
        <time>2015-08-26T12:41:20Z</time>
      </trkpt>
      <trkpt lat="43.24834" lon="2.06357">
        <ele>143.073</ele>
        <time>2015-08-26T12:41:40Z</time>
      </trkpt>
      <trkpt lat="43.24902" lon="2.06086">
        <ele>142.072</ele>
        <time>2015-08-26T12:42:00Z</time>
      </trkpt>
      <trkpt lat="43.24864" lon="2.06045">
        <ele>142.055</ele>
        <time>2015-08-26T12:42:20Z</time>
      </trkpt>
      <trkpt lat="43.24834" lon="2.05964">
        <ele>142.372</ele>
        <time>2015-08-26T12:42:40Z</time>
      </trkpt>
      <trkpt lat="43.2477" lon="2.05907">
        <ele>144.046</ele>
        <time>2015-08-26T12:43:00Z</time>
      </trkpt>
      <trkpt lat="43.24554" lon="2.05805">
        <ele>145.039</ele>
        <time>2015-08-26T12:43:20Z</time>
      </trkpt>
      <trkpt lat="43.24465" lon="2.05729">
        <ele>145.201</ele>
        <time>2015-08-26T12:43:40Z</time>
      </trkpt>
      <trkpt lat="43.24312" lon="2.05572">
        <ele>147.821</ele>
        <time>2015-08-26T12:44:00Z</time>
      </trkpt>
      <trkpt lat="43.24237" lon="2.0551">
        <ele>149.008</ele>
        <time>2015-08-26T12:44:20Z</time>
      </trkpt>
      <trkpt lat="43.24193" lon="2.05376">
        <ele>150.099</ele>
        <time>2015-08-26T12:44:40Z</time>
      </trkpt>
      <trkpt lat="43.24127" lon="2.05298">
        <ele>150.044</ele>
        <time>2015-08-26T12:45:00Z</time>
      </trkpt>
      <trkpt lat="43.23986" lon="2.05206">
        <ele>152.085</ele>
        <time>2015-08-26T12:45:20Z</time>
      </trkpt>
      <trkpt lat="43.23951" lon="2.05168">
        <ele>152.81</ele>
        <time>2015-08-26T12:45:40Z</time>
      </trkpt>
      <trkpt lat="43.2392" lon="2.05029">
        <ele>153.019</ele>
        <time>2015-08-26T12:46:00Z</time>
      </trkpt>
      <trkpt lat="43.23751" lon="2.0481">
        <ele>155.022</ele>
        <time>2015-08-26T12:46:20Z</time>
      </trkpt>
      <trkpt lat="43.23373" lon="2.04383">
        <ele>159.279</ele>
        <time>2015-08-26T12:46:40Z</time>
      </trkpt>
      <trkpt lat="43.23379" lon="2.04334">
        <ele>160.053</ele>
        <time>2015-08-26T12:47:00Z</time>
      </trkpt>
      <trkpt lat="43.23401" lon="2.04277">
        <ele>160.024</ele>
        <time>2015-08-26T12:47:20Z</time>
      </trkpt>
      <trkpt lat="43.23306" lon="2.04167">
        <ele>160.004</ele>
        <time>2015-08-26T12:47:40Z</time>
      </trkpt>
      <trkpt lat="43.23238" lon="2.04055">
        <ele>161.414</ele>
        <time>2015-08-26T12:48:00Z</time>
      </trkpt>
      <trkpt lat="43.23189" lon="2.0395">
        <ele>162.208</ele>
        <time>2015-08-26T12:48:20Z</time>
      </trkpt>
      <trkpt lat="43.23084" lon="2.03795">
        <ele>164.048</ele>
        <time>2015-08-26T12:48:40Z</time>
      </trkpt>
      <trkpt lat="43.22994" lon="2.03704">
        <ele>165.023</ele>
        <time>2015-08-26T12:49:00Z</time>
      </trkpt>
      <trkpt lat="43.22947" lon="2.03583">
        <ele>166.044</ele>
        <time>2015-08-26T12:49:20Z</time>
      </trkpt>
      <trkpt lat="43.2289" lon="2.03546">
        <ele>167.019</ele>
        <time>2015-08-26T12:49:40Z</time>
      </trkpt>
      <trkpt lat="43.22822" lon="2.03546">
        <ele>168.728</ele>
        <time>2015-08-26T12:50:00Z</time>
      </trkpt>
      <trkpt lat="43.22758" lon="2.03534">
        <ele>169.911</ele>
        <time>2015-08-26T12:50:20Z</time>
      </trkpt>
      <trkpt lat="43.22698" lon="2.03556">
        <ele>170.058</ele>
        <time>2015-08-26T12:50:40Z</time>
      </trkpt>
      <trkpt lat="43.2267" lon="2.03618">
        <ele>170.052</ele>
        <time>2015-08-26T12:51:00Z</time>
      </trkpt>
      <trkpt lat="43.22538" lon="2.03665">
        <ele>171.028</ele>
        <time>2015-08-26T12:51:20Z</time>
      </trkpt>
      <trkpt lat="43.22458" lon="2.03674">
        <ele>173.489</ele>
        <time>2015-08-26T12:51:40Z</time>
      </trkpt>
      <trkpt lat="43.22228" lon="2.03792">
        <ele>194.217</ele>
        <time>2015-08-26T12:52:00Z</time>
      </trkpt>
      <trkpt lat="43.2223" lon="2.03888">
        <ele>194.908</ele>
        <time>2015-08-26T12:52:20Z</time>
      </trkpt>
      <trkpt lat="43.2224" lon="2.03959">
        <ele>194.568</ele>
        <time>2020-03-08T21:59:17Z</time>
      </trkpt>
      <trkpt lat="43.22183" lon="2.0412">
        <ele>196.753</ele>
        <time>2020-03-08T21:59:37Z</time>
      </trkpt>
      <trkpt lat="43.22079" lon="2.04037">
        <ele>214.024</ele>
        <time>2020-03-08T21:59:57Z</time>
      </trkpt>
      <trkpt lat="43.2209" lon="2.03996">
        <ele>214.919</ele>
        <time>2020-03-08T22:00:17Z</time>
      </trkpt>
      <trkpt lat="43.22054" lon="2.0397">
        <ele>217.858</ele>
        <time>2020-03-08T22:00:37Z</time>
      </trkpt>
      <trkpt lat="43.22061" lon="2.03954">
        <ele>216.471</ele>
        <time>2020-03-08T22:00:57Z</time>
      </trkpt>
      <trkpt lat="43.22037" lon="2.03932">
        <ele>213.988</ele>
        <time>2020-03-08T22:01:17Z</time>
      </trkpt>
      <trkpt lat="43.22003" lon="2.03991">
        <ele>216.572</ele>
        <time>2020-03-08T22:01:37Z</time>
      </trkpt>
      <trkpt lat="43.21991" lon="2.03976">
        <ele>213.953</ele>
        <time>2015-08-26T12:54:40Z</time>
      </trkpt>
      <trkpt lat="43.21925" lon="2.04122">
        <ele>213.404</ele>
        <time>2015-08-26T12:55:00Z</time>
      </trkpt>
      <trkpt lat="43.21891" lon="2.04064">
        <ele>205.514</ele>
        <time>2015-08-26T12:55:20Z</time>
      </trkpt>
      <trkpt lat="43.21812" lon="2.03979">
        <ele>195.708</ele>
        <time>2015-08-26T12:55:40Z</time>
      </trkpt>
      <trkpt lat="43.21763" lon="2.03897">
        <ele>190.841</ele>
        <time>2015-08-26T12:56:00Z</time>
      </trkpt>
      <trkpt lat="43.21739" lon="2.03836">
        <ele>188.696</ele>
        <time>2015-08-26T12:56:20Z</time>
      </trkpt>
      <trkpt lat="43.21758" lon="2.03786">
        <ele>187.677</ele>
        <time>2015-08-26T12:56:40Z</time>
      </trkpt>
      <trkpt lat="43.21778" lon="2.03791">
        <ele>188.562</ele>
        <time>2015-08-26T12:57:00Z</time>
      </trkpt>
      <trkpt lat="43.21811" lon="2.03722">
        <ele>188.411</ele>
        <time>2015-08-26T12:57:20Z</time>
      </trkpt>
      <trkpt lat="43.21864" lon="2.03645">
        <ele>186.684</ele>
        <time>2015-08-26T12:57:40Z</time>
      </trkpt>
      <trkpt lat="43.21841" lon="2.03574">
        <ele>183.451</ele>
        <time>2015-08-26T12:58:00Z</time>
      </trkpt>
      <trkpt lat="43.21835" lon="2.0351">
        <ele>181.395</ele>
        <time>2015-08-26T12:58:20Z</time>
      </trkpt>
      <trkpt lat="43.21863" lon="2.03387">
        <ele>180.924</ele>
        <time>2015-08-26T12:58:40Z</time>
      </trkpt>
      <trkpt lat="43.21856" lon="2.03276">
        <ele>184.504</ele>
        <time>2015-08-26T12:59:00Z</time>
      </trkpt>
      <trkpt lat="43.21822" lon="2.03221">
        <ele>186.614</ele>
        <time>2015-08-26T12:59:20Z</time>
      </trkpt>
      <trkpt lat="43.21759" lon="2.0317">
        <ele>189.808</ele>
        <time>2015-08-26T12:59:40Z</time>
      </trkpt>
      <trkpt lat="43.21733" lon="2.03163">
        <ele>190.588</ele>
        <time>2015-08-26T13:00:00Z</time>
      </trkpt>
      <trkpt lat="43.2167" lon="2.03195">
        <ele>192.953</ele>
        <time>2015-08-26T13:00:20Z</time>
      </trkpt>
      <trkpt lat="43.215" lon="2.03217">
        <ele>198.234</ele>
        <time>2015-08-26T13:00:40Z</time>
      </trkpt>
      <trkpt lat="43.21331" lon="2.03139">
        <ele>215.179</ele>
        <time>2015-08-26T13:01:00Z</time>
      </trkpt>
      <trkpt lat="43.21303" lon="2.03144">
        <ele>216.448</ele>
        <time>2015-08-26T13:01:20Z</time>
      </trkpt>
      <trkpt lat="43.21271" lon="2.03189">
        <ele>220.011</ele>
        <time>2015-08-26T13:01:40Z</time>
      </trkpt>
      <trkpt lat="43.21239" lon="2.03212">
        <ele>219.848</ele>
        <time>2015-08-26T13:02:00Z</time>
      </trkpt>
      <trkpt lat="43.21229" lon="2.03196">
        <ele>220.022</ele>
        <time>2015-08-26T13:02:20Z</time>
      </trkpt>
      <trkpt lat="43.21206" lon="2.03194">
        <ele>219.469</ele>
        <time>2015-08-26T13:02:40Z</time>
      </trkpt>
      <trkpt lat="43.21105" lon="2.03227">
        <ele>217.104</ele>
        <time>2015-08-26T13:03:00Z</time>
      </trkpt>
      <trkpt lat="43.21033" lon="2.03243">
        <ele>219.224</ele>
        <time>2015-08-26T13:03:20Z</time>
      </trkpt>
      <trkpt lat="43.20995" lon="2.03244">
        <ele>222.008</ele>
        <time>2015-08-26T13:03:40Z</time>
      </trkpt>
      <trkpt lat="43.20917" lon="2.03287">
        <ele>228.642</ele>
        <time>2015-08-26T13:04:00Z</time>
      </trkpt>
      <trkpt lat="43.20901" lon="2.03288">
        <ele>231.227</ele>
        <time>2015-08-26T13:04:20Z</time>
      </trkpt>
      <trkpt lat="43.20816" lon="2.03261">
        <ele>239.258</ele>
        <time>2015-08-26T13:04:40Z</time>
      </trkpt>
      <trkpt lat="43.20801" lon="2.03264">
        <ele>239.633</ele>
        <time>2015-08-26T13:05:00Z</time>
      </trkpt>
      <trkpt lat="43.20747" lon="2.03314">
        <ele>237.972</ele>
        <time>2015-08-26T13:05:20Z</time>
      </trkpt>
      <trkpt lat="43.20711" lon="2.03316">
        <ele>238.235</ele>
        <time>2015-08-26T13:05:40Z</time>
      </trkpt>
      <trkpt lat="43.20685" lon="2.03298">
        <ele>236.792</ele>
        <time>2015-08-26T13:06:00Z</time>
      </trkpt>
      <trkpt lat="43.20612" lon="2.03283">
        <ele>228.876</ele>
        <time>2015-08-26T13:06:20Z</time>
      </trkpt>
      <trkpt lat="43.2049" lon="2.03377">
        <ele>224.327</ele>
        <time>2015-08-26T13:06:40Z</time>
      </trkpt>
      <trkpt lat="43.20415" lon="2.03414">
        <ele>215.768</ele>
        <time>2015-08-26T13:07:00Z</time>
      </trkpt>
      <trkpt lat="43.2035" lon="2.03357">
        <ele>207.114</ele>
        <time>2015-08-26T13:07:20Z</time>
      </trkpt>
      <trkpt lat="43.20277" lon="2.03335">
        <ele>201.108</ele>
        <time>2015-08-26T13:07:40Z</time>
      </trkpt>
      <trkpt lat="43.20245" lon="2.03345">
        <ele>199.828</ele>
        <time>2015-08-26T13:08:00Z</time>
      </trkpt>
      <trkpt lat="43.20212" lon="2.0337">
        <ele>198.353</ele>
        <time>2015-08-26T13:08:20Z</time>
      </trkpt>
      <trkpt lat="43.20084" lon="2.03392">
        <ele>194.034</ele>
        <time>2015-08-26T13:08:40Z</time>
      </trkpt>
      <trkpt lat="43.20037" lon="2.03368">
        <ele>197.159</ele>
        <time>2015-08-26T13:09:00Z</time>
      </trkpt>
      <trkpt lat="43.20007" lon="2.03366">
        <ele>199.878</ele>
        <time>2015-08-26T13:09:20Z</time>
      </trkpt>
      <trkpt lat="43.19964" lon="2.03378">
        <ele>204.231</ele>
        <time>2015-08-26T13:09:40Z</time>
      </trkpt>
      <trkpt lat="43.1993" lon="2.03384">
        <ele>208.028</ele>
        <time>2015-08-26T13:10:00Z</time>
      </trkpt>
      <trkpt lat="43.19866" lon="2.03415">
        <ele>213.632</ele>
        <time>2015-08-26T13:10:20Z</time>
      </trkpt>
      <trkpt lat="43.19777" lon="2.03447">
        <ele>223.276</ele>
        <time>2015-08-26T13:10:40Z</time>
      </trkpt>
      <trkpt lat="43.19756" lon="2.03465">
        <ele>226.19</ele>
        <time>2015-08-26T13:11:00Z</time>
      </trkpt>
      <trkpt lat="43.19731" lon="2.03508">
        <ele>231.019</ele>
        <time>2015-08-26T13:11:20Z</time>
      </trkpt>
      <trkpt lat="43.19641" lon="2.03553">
        <ele>244.908</ele>
        <time>2015-08-26T13:11:40Z</time>
      </trkpt>
      <trkpt lat="43.19626" lon="2.0358">
        <ele>245.473</ele>
        <time>2015-08-26T13:12:00Z</time>
      </trkpt>
      <trkpt lat="43.19599" lon="2.03587">
        <ele>246.188</ele>
        <time>2015-08-26T13:12:20Z</time>
      </trkpt>
      <trkpt lat="43.19558" lon="2.03622">
        <ele>247.659</ele>
        <time>2015-08-26T13:12:40Z</time>
      </trkpt>
      <trkpt lat="43.19487" lon="2.03614">
        <ele>250.024</ele>
        <time>2015-08-26T13:13:00Z</time>
      </trkpt>
      <trkpt lat="43.19434" lon="2.03601">
        <ele>246.323</ele>
        <time>2015-08-26T13:13:20Z</time>
      </trkpt>
      <trkpt lat="43.19366" lon="2.03631">
        <ele>247.866</ele>
        <time>2015-08-26T13:13:40Z</time>
      </trkpt>
      <trkpt lat="43.19294" lon="2.0369">
        <ele>258.943</ele>
        <time>2015-08-26T13:14:00Z</time>
      </trkpt>
      <trkpt lat="43.19243" lon="2.03685">
        <ele>266.897</ele>
        <time>2015-08-26T13:14:20Z</time>
      </trkpt>
      <trkpt lat="43.19234" lon="2.03669">
        <ele>267.987</ele>
        <time>2015-08-26T13:14:40Z</time>
      </trkpt>
      <trkpt lat="43.19239" lon="2.03615">
        <ele>265.542</ele>
        <time>2015-08-26T13:15:00Z</time>
      </trkpt>
      <trkpt lat="43.19224" lon="2.03568">
        <ele>266.526</ele>
        <time>2015-08-26T13:15:20Z</time>
      </trkpt>
      <trkpt lat="43.19192" lon="2.03525">
        <ele>267.208</ele>
        <time>2015-08-26T13:15:40Z</time>
      </trkpt>
      <trkpt lat="43.1912" lon="2.035">
        <ele>273.584</ele>
        <time>2015-08-26T13:16:00Z</time>
      </trkpt>
      <trkpt lat="43.191" lon="2.03481">
        <ele>274.219</ele>
        <time>2015-08-26T13:16:20Z</time>
      </trkpt>
      <trkpt lat="43.19084" lon="2.03445">
        <ele>278.09</ele>
        <time>2015-08-26T13:16:40Z</time>
      </trkpt>
      <trkpt lat="43.19081" lon="2.03407">
        <ele>285.215</ele>
        <time>2015-08-26T13:17:00Z</time>
      </trkpt>
      <trkpt lat="43.19092" lon="2.03364">
        <ele>290.444</ele>
        <time>2015-08-26T13:17:20Z</time>
      </trkpt>
      <trkpt lat="43.19138" lon="2.03296">
        <ele>288.357</ele>
        <time>2015-08-26T13:17:40Z</time>
      </trkpt>
      <trkpt lat="43.19218" lon="2.03086">
        <ele>289.424</ele>
        <time>2015-08-26T13:18:00Z</time>
      </trkpt>
      <trkpt lat="43.19225" lon="2.03042">
        <ele>289.998</ele>
        <time>2015-08-26T13:18:20Z</time>
      </trkpt>
      <trkpt lat="43.19214" lon="2.02998">
        <ele>294.478</ele>
        <time>2015-08-26T13:18:40Z</time>
      </trkpt>
      <trkpt lat="43.19187" lon="2.02967">
        <ele>296.233</ele>
        <time>2015-08-26T13:19:00Z</time>
      </trkpt>
      <trkpt lat="43.19164" lon="2.02957">
        <ele>296.226</ele>
        <time>2015-08-26T13:19:20Z</time>
      </trkpt>
      <trkpt lat="43.19142" lon="2.03009">
        <ele>300.608</ele>
        <time>2015-08-26T13:19:40Z</time>
      </trkpt>
      <trkpt lat="43.19104" lon="2.03077">
        <ele>304.463</ele>
        <time>2015-08-26T13:20:00Z</time>
      </trkpt>
      <trkpt lat="43.19053" lon="2.03216">
        <ele>316.118</ele>
        <time>2015-08-26T13:20:20Z</time>
      </trkpt>
      <trkpt lat="43.18995" lon="2.03283">
        <ele>324.129</ele>
        <time>2015-08-26T13:20:40Z</time>
      </trkpt>
      <trkpt lat="43.18954" lon="2.03361">
        <ele>328.644</ele>
        <time>2015-08-26T13:21:00Z</time>
      </trkpt>
      <trkpt lat="43.18942" lon="2.03367">
        <ele>330.793</ele>
        <time>2015-08-26T13:21:20Z</time>
      </trkpt>
      <trkpt lat="43.18871" lon="2.03456">
        <ele>339.876</ele>
        <time>2015-08-26T13:21:40Z</time>
      </trkpt>
      <trkpt lat="43.18766" lon="2.03363">
        <ele>345.713</ele>
        <time>2015-08-26T13:22:00Z</time>
      </trkpt>
      <trkpt lat="43.18627" lon="2.03274">
        <ele>339.787</ele>
        <time>2015-08-26T13:22:20Z</time>
      </trkpt>
      <trkpt lat="43.18594" lon="2.03275">
        <ele>336.036</ele>
        <time>2015-08-26T13:22:40Z</time>
      </trkpt>
      <trkpt lat="43.18572" lon="2.03291">
        <ele>330.917</ele>
        <time>2015-08-26T13:23:00Z</time>
      </trkpt>
      <trkpt lat="43.18536" lon="2.03442">
        <ele>332.318</ele>
        <time>2015-08-26T13:23:20Z</time>
      </trkpt>
      <trkpt lat="43.1851" lon="2.03438">
        <ele>330.508</ele>
        <time>2015-08-26T13:23:40Z</time>
      </trkpt>
      <trkpt lat="43.18487" lon="2.0344">
        <ele>332.049</ele>
        <time>2015-08-26T13:24:00Z</time>
      </trkpt>
      <trkpt lat="43.18447" lon="2.0343">
        <ele>332.854</ele>
        <time>2015-08-26T13:24:20Z</time>
      </trkpt>
      <trkpt lat="43.18333" lon="2.03421">
        <ele>336.085</ele>
        <time>2015-08-26T13:24:40Z</time>
      </trkpt>
      <trkpt lat="43.18314" lon="2.03411">
        <ele>339.31</ele>
        <time>2015-08-26T13:25:00Z</time>
      </trkpt>
    </trkseg>
  </trk>
</gpx>